sensor_id;sensor_type;location;lat;lon;timestamp;pressure;altitude;pressure_sealevel;temperature;humidity
73105;BME280;61296;50.526;30.792;2023-07-31T00:02:07;98771.00;;;18.73;93.13
73105;BME280;61296;50.526;30.792;2023-07-31T00:17:26;98813.66;;;18.83;95.45
73105;BME280;61296;50.526;30.792;2023-07-31T00:32:45;98808.91;;;18.71;95.87
73105;BME280;61296;50.526;30.792;2023-07-31T00:48:05;98749.53;;;18.23;96.19
73105;BME280;61296;50.526;30.792;2023-07-31T01:03:27;98755.03;;;18.14;96.94
73105;BME280;61296;50.526;30.792;2023-07-31T01:18:47;98767.94;;;18.08;98.35
73105;BME280;61296;50.526;30.792;2023-07-31T01:34:08;98806.22;;;18.04;100.00
73105;BME280;61296;50.526;30.792;2023-07-31T01:49:29;98756.81;;;17.66;100.00
73105;BME280;61296;50.526;30.792;2023-07-31T02:04:49;98787.78;;;17.81;100.00
73105;BME280;61296;50.526;30.792;2023-07-31T02:20:08;98792.81;;;17.86;100.00
73105;BME280;61296;50.526;30.792;2023-07-31T02:35:28;98786.88;;;17.71;100.00
73105;BME280;61296;50.526;30.792;2023-07-31T02:50:47;98744.13;;;17.52;100.00
73105;BME280;61296;50.526;30.792;2023-07-31T03:06:07;98767.94;;;17.53;100.00
73105;BME280;61296;50.526;30.792;2023-07-31T03:21:26;98786.47;;;17.44;100.00
73105;BME280;61296;50.526;30.792;2023-07-31T03:36:45;98789.09;;;17.35;100.00
73105;BME280;61296;50.526;30.792;2023-07-31T03:52:05;98831.47;;;17.68;100.00
73105;BME280;61296;50.526;30.792;2023-07-31T04:07:24;98807.16;;;17.72;100.00
73105;BME280;61296;50.526;30.792;2023-07-31T04:22:44;98780.72;;;17.93;100.00
73105;BME280;61296;50.526;30.792;2023-07-31T04:38:03;98825.47;;;18.11;100.00
73105;BME280;61296;50.526;30.792;2023-07-31T04:53:23;98803.09;;;18.14;100.00
73105;BME280;61296;50.526;30.792;2023-07-31T05:08:42;98839.97;;;18.57;100.00
73105;BME280;61296;50.526;30.792;2023-07-31T05:24:02;98841.72;;;18.63;100.00
73105;BME280;61296;50.526;30.792;2023-07-31T05:39:22;98935.34;;;19.12;100.00
73105;BME280;61296;50.526;30.792;2023-07-31T05:54:42;98869.81;;;19.07;100.00
73105;BME280;61296;50.526;30.792;2023-07-31T06:10:01;98834.22;;;19.11;100.00
73105;BME280;61296;50.526;30.792;2023-07-31T06:25:24;98932.44;;;19.75;99.34
73105;BME280;61296;50.526;30.792;2023-07-31T06:40:43;98904.16;;;19.86;97.00
73105;BME280;61296;50.526;30.792;2023-07-31T06:56:03;98959.91;;;20.21;98.19
73105;BME280;61296;50.526;30.792;2023-07-31T07:11:23;98916.38;;;20.01;97.74
73105;BME280;61296;50.526;30.792;2023-07-31T07:26:43;98911.88;;;20.26;98.17
73105;BME280;61296;50.526;30.792;2023-07-31T07:42:04;98904.59;;;20.50;95.90
73105;BME280;61296;50.526;30.792;2023-07-31T07:57:23;98909.03;;;20.69;95.23
73105;BME280;61296;50.526;30.792;2023-07-31T08:12:43;98916.09;;;21.42;89.87
73105;BME280;61296;50.526;30.792;2023-07-31T08:28:06;98881.75;;;22.14;83.57
73105;BME280;61296;50.526;30.792;2023-07-31T08:43:26;98942.88;;;22.95;76.67
73105;BME280;61296;50.526;30.792;2023-07-31T08:58:47;98913.63;;;23.20;74.16
73105;BME280;61296;50.526;30.792;2023-07-31T09:14:08;98889.13;;;22.96;73.90
73105;BME280;61296;50.526;30.792;2023-07-31T09:29:28;98933.25;;;23.20;71.90
73105;BME280;61296;50.526;30.792;2023-07-31T09:44:48;98898.28;;;23.06;73.21
73105;BME280;61296;50.526;30.792;2023-07-31T10:00:09;99005.38;;;23.61;73.56
73105;BME280;61296;50.526;30.792;2023-07-31T10:15:31;98937.50;;;23.39;74.77
73105;BME280;61296;50.526;30.792;2023-07-31T10:30:50;98938.22;;;23.49;73.86
73105;BME280;61296;50.526;30.792;2023-07-31T10:46:14;98978.75;;;23.48;76.20
73105;BME280;61296;50.526;30.792;2023-07-31T11:01:53;98988.34;;;23.32;77.04
73105;BME280;61296;50.526;30.792;2023-07-31T11:17:13;98968.31;;;23.48;72.26
73105;BME280;61296;50.526;30.792;2023-07-31T11:32:33;98948.88;;;23.12;72.01
73105;BME280;61296;50.526;30.792;2023-07-31T11:47:54;98884.38;;;23.59;66.94
73105;BME280;61296;50.526;30.792;2023-07-31T12:03:14;98887.34;;;23.80;64.13
73105;BME280;61296;50.526;30.792;2023-07-31T12:18:36;98918.19;;;24.18;63.11
73105;BME280;61296;50.526;30.792;2023-07-31T12:33:57;98913.84;;;24.47;60.08
73105;BME280;61296;50.526;30.792;2023-07-31T12:49:18;98886.81;;;24.64;58.00
73105;BME280;61296;50.526;30.792;2023-07-31T13:04:37;98862.75;;;24.63;59.42
73105;BME280;61296;50.526;30.792;2023-07-31T13:19:58;98902.00;;;24.72;60.01
73105;BME280;61296;50.526;30.792;2023-07-31T13:35:17;98949.38;;;25.24;59.77
73105;BME280;61296;50.526;30.792;2023-07-31T13:50:39;98860.06;;;24.54;61.47
73105;BME280;61296;50.526;30.792;2023-07-31T14:05:59;98862.03;;;24.33;60.14
73105;BME280;61296;50.526;30.792;2023-07-31T14:21:21;98918.41;;;24.44;62.81
73105;BME280;61296;50.526;30.792;2023-07-31T14:36:40;98959.00;;;24.58;64.66
73105;BME280;61296;50.526;30.792;2023-07-31T14:52:00;98943.00;;;24.20;66.39
73105;BME280;61296;50.526;30.792;2023-07-31T15:07:19;98903.25;;;23.98;66.82
73105;BME280;61296;50.526;30.792;2023-07-31T15:22:39;98952.44;;;23.93;68.84
73105;BME280;61296;50.526;30.792;2023-07-31T15:38:01;98851.38;;;23.07;69.06
73105;BME280;61296;50.526;30.792;2023-07-31T15:53:20;98919.91;;;23.39;69.84
73105;BME280;61296;50.526;30.792;2023-07-31T16:08:42;98925.84;;;23.31;69.90
73105;BME280;61296;50.526;30.792;2023-07-31T16:24:01;98890.34;;;23.28;70.17
73105;BME280;61296;50.526;30.792;2023-07-31T16:39:20;98877.09;;;23.29;70.97
73105;BME280;61296;50.526;30.792;2023-07-31T16:54:40;98942.72;;;23.55;70.50
73105;BME280;61296;50.526;30.792;2023-07-31T17:09:59;98859.75;;;22.83;71.19
73105;BME280;61296;50.526;30.792;2023-07-31T17:25:20;98873.13;;;22.79;71.27
73105;BME280;61296;50.526;30.792;2023-07-31T17:40:39;98867.03;;;22.47;71.94
73105;BME280;61296;50.526;30.792;2023-07-31T17:55:59;98943.72;;;22.68;73.91
73105;BME280;61296;50.526;30.792;2023-07-31T18:11:18;98994.94;;;22.77;76.03
73105;BME280;61296;50.526;30.792;2023-07-31T18:26:39;98932.00;;;21.81;78.83
73105;BME280;61296;50.526;30.792;2023-07-31T18:41:59;98956.41;;;21.90;81.49
73105;BME280;61296;50.526;30.792;2023-07-31T18:57:19;98963.47;;;21.36;86.17
73105;BME280;61296;50.526;30.792;2023-07-31T19:12:38;98990.22;;;21.46;86.94
73105;BME280;61296;50.526;30.792;2023-07-31T19:27:57;98974.50;;;21.30;87.78
73105;BME280;61296;50.526;30.792;2023-07-31T19:43:16;98986.03;;;21.01;89.12
73105;BME280;61296;50.526;30.792;2023-07-31T19:58:36;98980.78;;;20.82;90.74
73105;BME280;61296;50.526;30.792;2023-07-31T20:13:56;98945.63;;;20.62;90.92
73105;BME280;61296;50.526;30.792;2023-07-31T20:29:15;98966.63;;;20.45;92.54
73105;BME280;61296;50.526;30.792;2023-07-31T20:44:35;98994.94;;;20.56;93.45
73105;BME280;61296;50.526;30.792;2023-07-31T20:59:55;98962.78;;;20.30;94.09
73105;BME280;61296;50.526;30.792;2023-07-31T21:15:14;98942.53;;;20.16;94.47
73105;BME280;61296;50.526;30.792;2023-07-31T21:30:33;98943.75;;;20.15;94.79
73105;BME280;61296;50.526;30.792;2023-07-31T21:45:53;98918.44;;;19.88;95.11
73105;BME280;61296;50.526;30.792;2023-07-31T22:01:13;98999.38;;;20.44;95.13
73105;BME280;61296;50.526;30.792;2023-07-31T22:16:33;98908.41;;;19.56;96.65
73105;BME280;61296;50.526;30.792;2023-07-31T22:31:54;98926.78;;;19.53;98.89
73105;BME280;61296;50.526;30.792;2023-07-31T22:47:13;98937.16;;;19.53;97.83
73105;BME280;61296;50.526;30.792;2023-07-31T23:02:33;98890.84;;;19.21;98.06
73105;BME280;61296;50.526;30.792;2023-07-31T23:17:53;99002.97;;;19.76;98.83
73105;BME280;61296;50.526;30.792;2023-07-31T23:33:16;98963.94;;;19.50;99.38
73105;BME280;61296;50.526;30.792;2023-07-31T23:48:35;98947.06;;;19.19;100.00
